European Causeway — C6RG7 — position and weather

sailwx.info

Track history (hours):
 
Tides and Currents Weather Stations Pressure Air Temp Water Temp Dewpoint Dewpoint Depression Visibility Wind Speed Wind Dir Waves Ship Positions

European Causeway

Operator: P & O Irish Sea

Last reported at 2014-Aug-28 10:34 UTC. Time now 2014-Aug-28 11:28 UTC.
Position N 54°57' W 005°29'.

Length 165 m; draft 5.5 m.

Type: Ship (hazmat cat A). MMSI: 311027000.

Date/timePositionNaut miles runAvg speedWind from/ knotsBaromVisibWave heightAir tempDewpointWater temp
2014-Aug-28 10:34N 54°57' W 005°29'1515.2
2014-Aug-28 09:33N 54°59' W 005°02'1 1.2
2014-Aug-28 08:33N 54°58' W 005°01'1111.1
2014-Aug-28 07:34N 54°58' W 005°20'1717.3
2014-Aug-28 06:33N 54°51' W 005°48'0 0.1
2014-Aug-28 05:34N 54°51' W 005°48'5 4.5
2014-Aug-28 04:33N 54°53' W 005°41'2019.6
2014-Aug-28 03:31N 55°02' W 005°09'6 6.3
2014-Aug-28 02:33N 54°58' W 005°01'0 0.0
2014-Aug-28 01:33N 54°58' W 005°01'5 5.2
2014-Aug-28 00:33N 55°02' W 005°07'1919.4
2014-Aug-27 23:33N 54°53' W 005°37'7 6.5
2014-Aug-27 22:33N 54°51' W 005°48'0 0.0
2014-Aug-27 21:33N 54°51' W 005°48'4 3.5
2014-Aug-27 20:33N 54°53' W 005°43'1818.0
2014-Aug-27 19:34N 55°00' W 005°15'8 8.0
2014-Aug-27 18:31N 54°58' W 005°01'0 0.2
2014-Aug-27 17:34N 54°58' W 005°01'1312.9
2014-Aug-27 16:33N 54°57' W 005°24'1515.2
2014-Aug-27 15:33N 54°51' W 005°48'0 0.0
2014-Aug-27 14:33N 54°51' W 005°48'1616.4
2014-Aug-27 13:33N 54°59' W 005°23'1312.1
2014-Aug-27 12:31N 54°58' W 005°01'0 0.1
2014-Aug-27 11:33N 54°58' W 005°01'1212.2
2014-Aug-27 10:33N 54°58' W 005°22'1616.0
2014-Aug-27 09:33N 54°51' W 005°48'0 0.1
2014-Aug-27 08:34N 54°51' W 005°48'1615.7
2014-Aug-27 07:33N 54°58' W 005°24'1311.3
2014-Aug-27 06:24N 54°58' W 005°01'0 0.0
2014-Aug-27 05:33N 54°58' W 005°01'5 5.5
2014-Aug-27 04:33N 55°01' W 005°08'1817.8
2014-Aug-27 03:31N 54°54' W 005°37'7 7.2
2014-Aug-27 02:33N 54°51' W 005°48'0 0.0
2014-Aug-27 01:33N 54°51' W 005°48'6 5.8
2014-Aug-27 00:33N 54°54' W 005°39'1919.1
2014-Aug-26 23:33N 55°01' W 005°09'6 5.7
2014-Aug-26 22:33N 54°58' W 005°01'0 0.0
2014-Aug-26 21:33N 54°58' W 005°01'5 5.4
2014-Aug-26 20:33N 55°01' W 005°08'1717.0
2014-Aug-26 19:33N 54°54' W 005°34'8 8.5
2014-Aug-26 18:33N 54°51' W 005°48'0 0.0
2014-Aug-26 17:33N 54°51' W 005°48'1313.2
2014-Aug-26 16:33N 54°58' W 005°28'1514.9
2014-Aug-26 15:31N 54°58' W 005°01'0 0.3
2014-Aug-26 14:33N 54°58' W 005°01'1312.6
2014-Aug-26 13:33N 54°58' W 005°23'1615.8
2014-Aug-26 12:34N 54°51' W 005°48'0 0.1
2014-Aug-26 11:33N 54°51' W 005°48'1212.5
2014-Aug-26 10:33N 54°57' W 005°29'1515.4
2014-Aug-26 09:34N 54°59' W 005°02'1 1.2
2014-Aug-26 08:33N 54°58' W 005°01'1211.5
2014-Aug-26 07:33N 54°58' W 005°21'1716.6
2014-Aug-26 06:33N 54°51' W 005°48'0 0.1
2014-Aug-26 05:33N 54°51' W 005°48'4 3.9
2014-Aug-26 04:33N 54°53' W 005°42'1817.6
2014-Aug-26 03:34N 55°01' W 005°15'9 8.5
2014-Aug-26 02:33N 54°58' W 005°01'0 0.0
2014-Aug-26 01:33N 54°58' W 005°01'6 5.9
2014-Aug-26 00:34N 55°01' W 005°09'1717.1
2014-Aug-25 23:33N 54°54' W 005°36'8 7.5
2014-Aug-25 22:33N 54°51' W 005°48'0 0.0
2014-Aug-25 21:33N 54°51' W 005°48'4 3.6
2014-Aug-25 20:31N 54°53' W 005°43'1717.9
2014-Aug-25 19:33N 55°00' W 005°15'9 8.5
2014-Aug-25 18:32N 54°58' W 005°01'1 0.7
2014-Aug-25 17:33N 54°58' W 005°02'1313.4
2014-Aug-25 16:33N 54°57' W 005°25'1414.4
2014-Aug-25 15:33N 54°51' W 005°48'0 0.0
2014-Aug-25 14:34N 54°51' W 005°48'1312.6
2014-Aug-25 13:33N 54°57' W 005°29'1515.3
2014-Aug-25 12:34N 54°59' W 005°02'1 1.1
2014-Aug-25 11:33N 54°58' W 005°01'1212.4
2014-Aug-25 10:33N 54°57' W 005°23'1615.7
2014-Aug-25 09:33N 54°51' W 005°48'0 0.1
2014-Aug-25 08:33N 54°51' W 005°48'1212.4
2014-Aug-25 07:33N 54°57' W 005°29'1515.2
2014-Aug-25 06:32N 54°59' W 005°02'1 1.2
2014-Aug-25 05:33N 54°58' W 005°01'6 6.3
2014-Aug-25 04:33N 55°01' W 005°10'1717.4
2014-Aug-25 03:33N 54°54' W 005°38'7 6.6
2014-Aug-25 02:31N 54°51' W 005°48'0 0.0
2014-Aug-25 01:28N 54°51' W 005°48'0 0.0
2014-Aug-25 00:25N 54°51' W 005°48'2 2.4
2014-Aug-24 23:33N 54°52' W 005°45'1818.3
2014-Aug-24 22:33N 55°00' W 005°17'9 8.9
2014-Aug-24 21:31N 54°58' W 005°01'5 5.6
2014-Aug-24 20:33N 55°01' W 005°08'1717.1
2014-Aug-24 19:34N 54°54' W 005°35'8 8.4
2014-Aug-24 18:33N 54°51' W 005°48'0 0.0
2014-Aug-24 17:33N 54°51' W 005°48'1313.2
2014-Aug-24 16:33N 54°57' W 005°28'1515.0
2014-Aug-24 15:33N 54°58' W 005°02'1 0.8
2014-Aug-24 14:34N 54°58' W 005°01'1413.7
2014-Aug-24 13:34N 54°57' W 005°25'1414.5
2014-Aug-24 12:34N 54°51' W 005°48'0 0.0
2014-Aug-24 11:34N 54°51' W 005°48'1312.7
2014-Aug-24 10:34N 54°57' W 005°29'1514.9
2014-Aug-24 09:33N 54°59' W 005°02'1 1.3
2014-Aug-24 08:33N 54°58' W 005°01'1111.1
2014-Aug-24 07:33N 54°58' W 005°20'1717.4
2014-Aug-24 06:33N 54°51' W 005°48'0 0.1
2014-Aug-24 05:33N 54°51' W 005°48'0 0.0
2014-Aug-24 04:33N 54°51' W 005°48'0 0.0
2014-Aug-24 03:33N 54°51' W 005°48'0 0.0
2014-Aug-24 02:33N 54°51' W 005°48'0 0.0
2014-Aug-24 01:33N 54°51' W 005°48'0 0.0
2014-Aug-24 00:33N 54°51' W 005°48'0 0.0
2014-Aug-23 23:33N 54°51' W 005°48'0 0.0
2014-Aug-23 22:33N 54°51' W 005°48'0 0.0
2014-Aug-23 21:33N 54°51' W 005°48'3 3.0
2014-Aug-23 20:33N 54°53' W 005°44'1717.5
2014-Aug-23 19:34N 55°00' W 005°16'11 0.7
2014-Aug-23 03:34N 54°55' W 005°32'10 9.8
2014-Aug-23 02:33N 54°51' W 005°48'0 0.0
2014-Aug-23 01:33N 54°51' W 005°48'5 5.2
2014-Aug-23 00:33N 54°54' W 005°40'1917.6
2014-Aug-22 23:30N 55°02' W 005°11'7 7.4
2014-Aug-22 22:33N 54°58' W 005°01'0 0.0
2014-Aug-22 21:33N 54°58' W 005°01'5 4.7
2014-Aug-22 20:29N 55°02' W 005°07'1718.0
2014-Aug-22 19:33N 54°55' W 005°33'9 9.3
2014-Aug-22 18:33N 54°51' W 005°48'0 0.0
2014-Aug-22 17:33N 54°51' W 005°48'1717.2
2014-Aug-22 16:33N 54°59' W 005°22'1211.4
2014-Aug-22 15:31N 54°58' W 005°01'0 0.0
2014-Aug-22 14:33N 54°58' W 005°01'1211.9
2014-Aug-22 13:33N 54°58' W 005°22'1616.5
2014-Aug-22 12:34N 54°51' W 005°48'0 0.1
2014-Aug-22 11:34N 54°51' W 005°48'1514.6
2014-Aug-22 10:33N 54°58' W 005°25'1414.0
2014-Aug-22 09:33N 54°58' W 005°01'0 0.1
2014-Aug-22 08:33N 54°58' W 005°01'1110.8
2014-Aug-22 07:34N 54°58' W 005°20'1817.1
2014-Aug-22 06:31N 54°51' W 005°48'0 0.1
2014-Aug-22 05:33N 54°51' W 005°48'6 6.0
2014-Aug-22 04:33N 54°54' W 005°39'1818.0
2014-Aug-22 03:32N 55°01' W 005°10'6 6.5
2014-Aug-22 02:33N 54°58' W 005°01'0 0.0
2014-Aug-22 01:33N 54°58' W 005°01'6 5.8
2014-Aug-22 00:33N 55°01' W 005°09'1917.8
2014-Aug-21 23:29N 54°54' W 005°39'6 5.8
2014-Aug-21 22:27N 54°51' W 005°48'0 0.0
2014-Aug-21 21:33N 54°51' W 005°48'5 4.9
2014-Aug-21 20:32N 54°54' W 005°41'1717.3
2014-Aug-21 19:33N 55°00' W 005°14'8 7.5
2014-Aug-21 18:30N 54°58' W 005°01'0 0.0
2014-Aug-21 17:34N 54°58' W 005°01'1110.6
2014-Aug-21 16:33N 54°58' W 005°19'1817.5
2014-Aug-21 15:34N 54°51' W 005°48'0 0.4
2014-Aug-21 14:34N 54°51' W 005°48'1414.3
2014-Aug-21 13:33N 54°58' W 005°26'1413.7
2014-Aug-21 12:30N 54°58' W 005°01'0 0.0
2014-Aug-21 11:33N 54°58' W 005°01'1212.1
2014-Aug-21 10:34N 54°58' W 005°22'1616.4
2014-Aug-21 09:33N 54°51' W 005°48'0 0.1
2014-Aug-21 08:33N 54°51' W 005°48'1414.2
2014-Aug-21 07:33N 54°58' W 005°26'1413.9
2014-Aug-21 06:33N 54°58' W 005°02'1 0.6
2014-Aug-21 05:27N 54°58' W 005°01'5 5.2
2014-Aug-21 04:25N 55°02' W 005°08'1518.0
2014-Aug-21 03:34N 54°55' W 005°32'1010.1
2014-Aug-21 02:34N 54°51' W 005°48'0 0.0
2014-Aug-21 01:33N 54°51' W 005°48'3 3.5
2014-Aug-21 00:33N 54°53' W 005°43'1817.7
2014-Aug-20 23:33N 55°01' W 005°15'9 8.7
2014-Aug-20 22:34N 54°58' W 005°01'0 0.0
2014-Aug-20 21:34N 54°58' W 005°01'5 5.2
2014-Aug-20 20:32N 55°02' W 005°07'1717.5
2014-Aug-20 19:34N 54°54' W 005°34'9 8.5
2014-Aug-20 18:32N 54°51' W 005°48'0 0.0
2014-Aug-20 17:34N 54°51' W 005°48'1616.0
2014-Aug-20 16:34N 54°59' W 005°24'1312.4
2014-Aug-20 15:29N 54°58' W 005°01'0 0.0
2014-Aug-20 14:34N 54°58' W 005°01'1111.4
2014-Aug-20 13:33N 54°58' W 005°21'1716.9
2014-Aug-20 12:33N 54°51' W 005°48'0 0.1
2014-Aug-20 11:33N 54°51' W 005°48'1414.0
2014-Aug-20 10:33N 54°57' W 005°26'1514.5
2014-Aug-20 09:33N 54°58' W 005°01'0 0.1
2014-Aug-20 08:33N 54°58' W 005°01'1211.7
2014-Aug-20 07:33N 54°58' W 005°21'1716.9
2014-Aug-20 06:33N 54°51' W 005°48'0 0.1
2014-Aug-20 05:34N 54°51' W 005°48'5 5.1
2014-Aug-20 04:33N 54°54' W 005°41'2020.0
2014-Aug-20 03:34N 55°01' W 005°09'6 5.7
2014-Aug-20 02:33N 54°58' W 005°01'0 0.0
2014-Aug-20 01:33N 54°58' W 005°01'6 6.0
2014-Aug-20 00:33N 55°02' W 005°08'2019.6
2014-Aug-19 23:33N 54°53' W 005°39'6 5.6
2014-Aug-19 22:33N 54°51' W 005°48'0 0.0
2014-Aug-19 21:33N 54°51' W 005°48'3 3.5
2014-Aug-19 20:33N 54°53' W 005°43'1817.9
2014-Aug-19 19:33N 55°01' W 005°15'9 7.4
2014-Aug-19 18:22N 54°58' W 005°01'0 0.0
2014-Aug-19 17:33N 54°58' W 005°01'1211.9
2014-Aug-19 16:33N 54°58' W 005°22'1616.5
2014-Aug-19 15:33N 54°51' W 005°48'0 0.0
2014-Aug-19 14:33N 54°51' W 005°48'1615.6
2014-Aug-19 13:34N 54°58' W 005°24'1312.5
2014-Aug-19 12:31N 54°58' W 005°01'0 0.1
2014-Aug-19 11:34N 54°58' W 005°01'1312.8
2014-Aug-19 10:33N 54°58' W 005°24'1515.5
2014-Aug-19 09:33N 54°51' W 005°48'0 0.0
2014-Aug-19 08:33N 54°51' W 005°48'1414.2
2014-Aug-19 07:33N 54°58' W 005°26'1413.7
2014-Aug-19 06:30N 54°58' W 005°01'0 0.0
2014-Aug-19 05:33N 54°58' W 005°01'5 4.6
2014-Aug-19 04:28N 55°01' W 005°07'1517.0
2014-Aug-19 03:33N 54°55' W 005°31'1110.4
2014-Aug-19 02:33N 54°51' W 005°48'0 0.0
2014-Aug-19 01:33N 54°51' W 005°48'7 6.8
2014-Aug-19 00:33N 54°54' W 005°38'1716.5
2014-Aug-18 23:33N 55°01' W 005°11'7 7.0
2014-Aug-18 22:33N 54°58' W 005°01'0 0.0
2014-Aug-18 21:33N 54°58' W 005°01'7 6.6
2014-Aug-18 20:31N 55°01' W 005°12'1616.6
2014-Aug-18 19:33N 54°54' W 005°37'7 6.7
2014-Aug-18 18:30N 54°51' W 005°48'0 0.0
2014-Aug-18 17:33N 54°51' W 005°48'1514.6
2014-Aug-18 16:33N 54°57' W 005°25'1313.5
2014-Aug-18 15:33N 54°58' W 005°02'1 0.7
2014-Aug-18 14:33N 54°58' W 005°01'1212.0
2014-Aug-18 13:33N 54°57' W 005°22'1616.3
2014-Aug-18 12:33N 54°51' W 005°48'0 0.0
2014-Aug-18 11:33N 54°51' W 005°48'  
Track history (hours):
 
Tides and Currents Weather Stations Pressure Air Temp Water Temp Dewpoint Dewpoint Depression Visibility Wind Speed Wind Dir Waves Ship Positions

European Causeway

Operator: P & O Irish Sea

Last reported at 2014-Aug-28 10:34 UTC. Time now 2014-Aug-28 11:28 UTC.
Position N 54°57' W 005°29'.

Length 165 m; draft 5.5 m.

Type: Ship (hazmat cat A). MMSI: 311027000.

Date/timePositionNaut miles runAvg speedWind from/ knotsBaromVisibWave heightAir tempDewpointWater temp
2014-Aug-28 10:34N 54°57' W 005°29'1515.2
2014-Aug-28 09:33N 54°59' W 005°02'1 1.2
2014-Aug-28 08:33N 54°58' W 005°01'1111.1
2014-Aug-28 07:34N 54°58' W 005°20'1717.3
2014-Aug-28 06:33N 54°51' W 005°48'0 0.1
2014-Aug-28 05:34N 54°51' W 005°48'5 4.5
2014-Aug-28 04:33N 54°53' W 005°41'2019.6
2014-Aug-28 03:31N 55°02' W 005°09'6 6.3
2014-Aug-28 02:33N 54°58' W 005°01'0 0.0
2014-Aug-28 01:33N 54°58' W 005°01'5 5.2
2014-Aug-28 00:33N 55°02' W 005°07'1919.4
2014-Aug-27 23:33N 54°53' W 005°37'7 6.5
2014-Aug-27 22:33N 54°51' W 005°48'0 0.0
2014-Aug-27 21:33N 54°51' W 005°48'4 3.5
2014-Aug-27 20:33N 54°53' W 005°43'1818.0
2014-Aug-27 19:34N 55°00' W 005°15'8 8.0
2014-Aug-27 18:31N 54°58' W 005°01'0 0.2
2014-Aug-27 17:34N 54°58' W 005°01'1312.9
2014-Aug-27 16:33N 54°57' W 005°24'1515.2
2014-Aug-27 15:33N 54°51' W 005°48'0 0.0
2014-Aug-27 14:33N 54°51' W 005°48'1616.4
2014-Aug-27 13:33N 54°59' W 005°23'1312.1
2014-Aug-27 12:31N 54°58' W 005°01'0 0.1
2014-Aug-27 11:33N 54°58' W 005°01'1212.2
2014-Aug-27 10:33N 54°58' W 005°22'1616.0
2014-Aug-27 09:33N 54°51' W 005°48'0 0.1
2014-Aug-27 08:34N 54°51' W 005°48'1615.7
2014-Aug-27 07:33N 54°58' W 005°24'1311.3
2014-Aug-27 06:24N 54°58' W 005°01'0 0.0
2014-Aug-27 05:33N 54°58' W 005°01'5 5.5
2014-Aug-27 04:33N 55°01' W 005°08'1817.8
2014-Aug-27 03:31N 54°54' W 005°37'7 7.2
2014-Aug-27 02:33N 54°51' W 005°48'0 0.0
2014-Aug-27 01:33N 54°51' W 005°48'6 5.8
2014-Aug-27 00:33N 54°54' W 005°39'1919.1
2014-Aug-26 23:33N 55°01' W 005°09'6 5.7
2014-Aug-26 22:33N 54°58' W 005°01'0 0.0
2014-Aug-26 21:33N 54°58' W 005°01'5 5.4
2014-Aug-26 20:33N 55°01' W 005°08'1717.0
2014-Aug-26 19:33N 54°54' W 005°34'8 8.5
2014-Aug-26 18:33N 54°51' W 005°48'0 0.0
2014-Aug-26 17:33N 54°51' W 005°48'1313.2
2014-Aug-26 16:33N 54°58' W 005°28'1514.9
2014-Aug-26 15:31N 54°58' W 005°01'0 0.3
2014-Aug-26 14:33N 54°58' W 005°01'1312.6
2014-Aug-26 13:33N 54°58' W 005°23'1615.8
2014-Aug-26 12:34N 54°51' W 005°48'0 0.1
2014-Aug-26 11:33N 54°51' W 005°48'1212.5
2014-Aug-26 10:33N 54°57' W 005°29'1515.4
2014-Aug-26 09:34N 54°59' W 005°02'1 1.2
2014-Aug-26 08:33N 54°58' W 005°01'1211.5
2014-Aug-26 07:33N 54°58' W 005°21'1716.6
2014-Aug-26 06:33N 54°51' W 005°48'0 0.1
2014-Aug-26 05:33N 54°51' W 005°48'4 3.9
2014-Aug-26 04:33N 54°53' W 005°42'1817.6
2014-Aug-26 03:34N 55°01' W 005°15'9 8.5
2014-Aug-26 02:33N 54°58' W 005°01'0 0.0
2014-Aug-26 01:33N 54°58' W 005°01'6 5.9
2014-Aug-26 00:34N 55°01' W 005°09'1717.1
2014-Aug-25 23:33N 54°54' W 005°36'8 7.5
2014-Aug-25 22:33N 54°51' W 005°48'0 0.0
2014-Aug-25 21:33N 54°51' W 005°48'4 3.6
2014-Aug-25 20:31N 54°53' W 005°43'1717.9
2014-Aug-25 19:33N 55°00' W 005°15'9 8.5
2014-Aug-25 18:32N 54°58' W 005°01'1 0.7
2014-Aug-25 17:33N 54°58' W 005°02'1313.4
2014-Aug-25 16:33N 54°57' W 005°25'1414.4
2014-Aug-25 15:33N 54°51' W 005°48'0 0.0
2014-Aug-25 14:34N 54°51' W 005°48'1312.6
2014-Aug-25 13:33N 54°57' W 005°29'1515.3
2014-Aug-25 12:34N 54°59' W 005°02'1 1.1
2014-Aug-25 11:33N 54°58' W 005°01'1212.4
2014-Aug-25 10:33N 54°57' W 005°23'1615.7
2014-Aug-25 09:33N 54°51' W 005°48'0 0.1
2014-Aug-25 08:33N 54°51' W 005°48'1212.4
2014-Aug-25 07:33N 54°57' W 005°29'1515.2
2014-Aug-25 06:32N 54°59' W 005°02'1 1.2
2014-Aug-25 05:33N 54°58' W 005°01'6 6.3
2014-Aug-25 04:33N 55°01' W 005°10'1717.4
2014-Aug-25 03:33N 54°54' W 005°38'7 6.6
2014-Aug-25 02:31N 54°51' W 005°48'0 0.0
2014-Aug-25 01:28N 54°51' W 005°48'0 0.0
2014-Aug-25 00:25N 54°51' W 005°48'2 2.4
2014-Aug-24 23:33N 54°52' W 005°45'1818.3
2014-Aug-24 22:33N 55°00' W 005°17'9 8.9
2014-Aug-24 21:31N 54°58' W 005°01'5 5.6
2014-Aug-24 20:33N 55°01' W 005°08'1717.1
2014-Aug-24 19:34N 54°54' W 005°35'8 8.4
2014-Aug-24 18:33N 54°51' W 005°48'0 0.0
2014-Aug-24 17:33N 54°51' W 005°48'1313.2
2014-Aug-24 16:33N 54°57' W 005°28'1515.0
2014-Aug-24 15:33N 54°58' W 005°02'1 0.8
2014-Aug-24 14:34N 54°58' W 005°01'1413.7
2014-Aug-24 13:34N 54°57' W 005°25'1414.5
2014-Aug-24 12:34N 54°51' W 005°48'0 0.0
2014-Aug-24 11:34N 54°51' W 005°48'1312.7
2014-Aug-24 10:34N 54°57' W 005°29'1514.9
2014-Aug-24 09:33N 54°59' W 005°02'1 1.3
2014-Aug-24 08:33N 54°58' W 005°01'1111.1
2014-Aug-24 07:33N 54°58' W 005°20'1717.4
2014-Aug-24 06:33N 54°51' W 005°48'0 0.1
2014-Aug-24 05:33N 54°51' W 005°48'0 0.0
2014-Aug-24 04:33N 54°51' W 005°48'0 0.0
2014-Aug-24 03:33N 54°51' W 005°48'0 0.0
2014-Aug-24 02:33N 54°51' W 005°48'0 0.0
2014-Aug-24 01:33N 54°51' W 005°48'0 0.0
2014-Aug-24 00:33N 54°51' W 005°48'0 0.0
2014-Aug-23 23:33N 54°51' W 005°48'0 0.0
2014-Aug-23 22:33N 54°51' W 005°48'0 0.0
2014-Aug-23 21:33N 54°51' W 005°48'3 3.0
2014-Aug-23 20:33N 54°53' W 005°44'1717.5
2014-Aug-23 19:34N 55°00' W 005°16'11 0.7
2014-Aug-23 03:34N 54°55' W 005°32'10 9.8
2014-Aug-23 02:33N 54°51' W 005°48'0 0.0
2014-Aug-23 01:33N 54°51' W 005°48'5 5.2
2014-Aug-23 00:33N 54°54' W 005°40'1917.6
2014-Aug-22 23:30N 55°02' W 005°11'7 7.4
2014-Aug-22 22:33N 54°58' W 005°01'0 0.0
2014-Aug-22 21:33N 54°58' W 005°01'5 4.7
2014-Aug-22 20:29N 55°02' W 005°07'1718.0
2014-Aug-22 19:33N 54°55' W 005°33'9 9.3
2014-Aug-22 18:33N 54°51' W 005°48'0 0.0
2014-Aug-22 17:33N 54°51' W 005°48'1717.2
2014-Aug-22 16:33N 54°59' W 005°22'1211.4
2014-Aug-22 15:31N 54°58' W 005°01'0 0.0
2014-Aug-22 14:33N 54°58' W 005°01'1211.9
2014-Aug-22 13:33N 54°58' W 005°22'1616.5
2014-Aug-22 12:34N 54°51' W 005°48'0 0.1
2014-Aug-22 11:34N 54°51' W 005°48'1514.6
2014-Aug-22 10:33N 54°58' W 005°25'1414.0
2014-Aug-22 09:33N 54°58' W 005°01'0 0.1
2014-Aug-22 08:33N 54°58' W 005°01'1110.8
2014-Aug-22 07:34N 54°58' W 005°20'1817.1
2014-Aug-22 06:31N 54°51' W 005°48'0 0.1
2014-Aug-22 05:33N 54°51' W 005°48'6 6.0
2014-Aug-22 04:33N 54°54' W 005°39'1818.0
2014-Aug-22 03:32N 55°01' W 005°10'6 6.5
2014-Aug-22 02:33N 54°58' W 005°01'0 0.0
2014-Aug-22 01:33N 54°58' W 005°01'6 5.8
2014-Aug-22 00:33N 55°01' W 005°09'1917.8
2014-Aug-21 23:29N 54°54' W 005°39'6 5.8
2014-Aug-21 22:27N 54°51' W 005°48'0 0.0
2014-Aug-21 21:33N 54°51' W 005°48'5 4.9
2014-Aug-21 20:32N 54°54' W 005°41'1717.3
2014-Aug-21 19:33N 55°00' W 005°14'8 7.5
2014-Aug-21 18:30N 54°58' W 005°01'0 0.0
2014-Aug-21 17:34N 54°58' W 005°01'1110.6
2014-Aug-21 16:33N 54°58' W 005°19'1817.5
2014-Aug-21 15:34N 54°51' W 005°48'0 0.4
2014-Aug-21 14:34N 54°51' W 005°48'1414.3
2014-Aug-21 13:33N 54°58' W 005°26'1413.7
2014-Aug-21 12:30N 54°58' W 005°01'0 0.0
2014-Aug-21 11:33N 54°58' W 005°01'1212.1
2014-Aug-21 10:34N 54°58' W 005°22'1616.4
2014-Aug-21 09:33N 54°51' W 005°48'0 0.1
2014-Aug-21 08:33N 54°51' W 005°48'1414.2
2014-Aug-21 07:33N 54°58' W 005°26'1413.9
2014-Aug-21 06:33N 54°58' W 005°02'1 0.6
2014-Aug-21 05:27N 54°58' W 005°01'5 5.2
2014-Aug-21 04:25N 55°02' W 005°08'1518.0
2014-Aug-21 03:34N 54°55' W 005°32'1010.1
2014-Aug-21 02:34N 54°51' W 005°48'0 0.0
2014-Aug-21 01:33N 54°51' W 005°48'3 3.5
2014-Aug-21 00:33N 54°53' W 005°43'1817.7
2014-Aug-20 23:33N 55°01' W 005°15'9 8.7
2014-Aug-20 22:34N 54°58' W 005°01'0 0.0
2014-Aug-20 21:34N 54°58' W 005°01'5 5.2
2014-Aug-20 20:32N 55°02' W 005°07'1717.5
2014-Aug-20 19:34N 54°54' W 005°34'9 8.5
2014-Aug-20 18:32N 54°51' W 005°48'0 0.0
2014-Aug-20 17:34N 54°51' W 005°48'1616.0
2014-Aug-20 16:34N 54°59' W 005°24'1312.4
2014-Aug-20 15:29N 54°58' W 005°01'0 0.0
2014-Aug-20 14:34N 54°58' W 005°01'1111.4
2014-Aug-20 13:33N 54°58' W 005°21'1716.9
2014-Aug-20 12:33N 54°51' W 005°48'0 0.1
2014-Aug-20 11:33N 54°51' W 005°48'1414.0
2014-Aug-20 10:33N 54°57' W 005°26'1514.5
2014-Aug-20 09:33N 54°58' W 005°01'0 0.1
2014-Aug-20 08:33N 54°58' W 005°01'1211.7
2014-Aug-20 07:33N 54°58' W 005°21'1716.9
2014-Aug-20 06:33N 54°51' W 005°48'0 0.1
2014-Aug-20 05:34N 54°51' W 005°48'5 5.1
2014-Aug-20 04:33N 54°54' W 005°41'2020.0
2014-Aug-20 03:34N 55°01' W 005°09'6 5.7
2014-Aug-20 02:33N 54°58' W 005°01'0 0.0
2014-Aug-20 01:33N 54°58' W 005°01'6 6.0
2014-Aug-20 00:33N 55°02' W 005°08'2019.6
2014-Aug-19 23:33N 54°53' W 005°39'6 5.6
2014-Aug-19 22:33N 54°51' W 005°48'0 0.0
2014-Aug-19 21:33N 54°51' W 005°48'3 3.5
2014-Aug-19 20:33N 54°53' W 005°43'1817.9
2014-Aug-19 19:33N 55°01' W 005°15'9 7.4
2014-Aug-19 18:22N 54°58' W 005°01'0 0.0
2014-Aug-19 17:33N 54°58' W 005°01'1211.9
2014-Aug-19 16:33N 54°58' W 005°22'1616.5
2014-Aug-19 15:33N 54°51' W 005°48'0 0.0
2014-Aug-19 14:33N 54°51' W 005°48'1615.6
2014-Aug-19 13:34N 54°58' W 005°24'1312.5
2014-Aug-19 12:31N 54°58' W 005°01'0 0.1
2014-Aug-19 11:34N 54°58' W 005°01'1312.8
2014-Aug-19 10:33N 54°58' W 005°24'1515.5
2014-Aug-19 09:33N 54°51' W 005°48'0 0.0
2014-Aug-19 08:33N 54°51' W 005°48'1414.2
2014-Aug-19 07:33N 54°58' W 005°26'1413.7
2014-Aug-19 06:30N 54°58' W 005°01'0 0.0
2014-Aug-19 05:33N 54°58' W 005°01'5 4.6
2014-Aug-19 04:28N 55°01' W 005°07'1517.0
2014-Aug-19 03:33N 54°55' W 005°31'1110.4
2014-Aug-19 02:33N 54°51' W 005°48'0 0.0
2014-Aug-19 01:33N 54°51' W 005°48'7 6.8
2014-Aug-19 00:33N 54°54' W 005°38'1716.5
2014-Aug-18 23:33N 55°01' W 005°11'7 7.0
2014-Aug-18 22:33N 54°58' W 005°01'0 0.0
2014-Aug-18 21:33N 54°58' W 005°01'7 6.6
2014-Aug-18 20:31N 55°01' W 005°12'1616.6
2014-Aug-18 19:33N 54°54' W 005°37'7 6.7
2014-Aug-18 18:30N 54°51' W 005°48'0 0.0
2014-Aug-18 17:33N 54°51' W 005°48'1514.6
2014-Aug-18 16:33N 54°57' W 005°25'1313.5
2014-Aug-18 15:33N 54°58' W 005°02'1 0.7
2014-Aug-18 14:33N 54°58' W 005°01'1212.0
2014-Aug-18 13:33N 54°57' W 005°22'1616.3
2014-Aug-18 12:33N 54°51' W 005°48'0 0.0
2014-Aug-18 11:33N 54°51' W 005°48'  

Dump ship's entire track history